Time;durP1;ratioP1;P1;durP2;ratioP2;P2;SDS_P1;SDS_P2;PMS_P1;PMS_P2;Temp;Humidity;BMP_temperature;BMP_pressure;BME280_temperature;BME280_humidity;BME280_pressure;Samples;Min_cycle;Max_cycle;Signal;HPM_P1;HPM_P2
2021/09/26 00:01:15;;;;;;;9.20;7.38;;;;;;;17.85;68.20;101556.41;5024953;27;102393;-48
2021/09/26 00:03:42;;;;;;;8.50;7.05;;;;;;;17.85;68.26;101556.41;5018583;27;102839;-49
2021/09/26 00:06:08;;;;;;;8.35;7.13;;;;;;;17.85;68.39;101551.75;5029761;27;102573;-48
2021/09/26 00:08:35;;;;;;;11.85;8.05;;;;;;;17.84;68.53;101550.06;5022608;27;102264;-51
2021/09/26 00:11:07;;;;;;;10.55;7.82;;;;;;;17.85;68.60;101551.75;5019545;27;102706;-48
2021/09/26 00:13:34;;;;;;;9.15;6.93;;;;;;;17.85;68.23;101551.75;5024059;27;103938;-49
2021/09/26 00:16:00;;;;;;;9.60;7.95;;;;;;;17.85;68.07;101548.13;5030456;27;102551;-48
2021/09/26 00:18:27;;;;;;;10.35;7.15;;;;;;;17.85;68.11;101557.25;5020687;27;102514;-49
2021/09/26 00:20:54;;;;;;;9.82;6.80;;;;;;;17.86;68.35;101545.09;5028642;27;102344;-48
2021/09/26 00:23:21;;;;;;;8.73;7.15;;;;;;;17.86;68.02;101542.34;5021202;27;104072;-48
2021/09/26 00:25:51;;;;;;;9.98;6.95;;;;;;;17.86;68.46;101544.28;5027283;27;102407;-48
2021/09/26 00:28:20;;;;;;;8.68;7.30;;;;;;;17.86;68.48;101536.84;5024927;27;102775;-48
2021/09/26 00:30:47;;;;;;;10.07;7.57;;;;;;;17.86;68.47;101534.09;5020303;27;102555;-50
2021/09/26 00:33:14;;;;;;;10.48;7.53;;;;;;;17.86;68.20;101530.53;5019321;27;103898;-49
2021/09/26 00:35:40;;;;;;;7.97;6.85;;;;;;;17.86;68.58;101531.34;5025939;27;102380;-49
2021/09/26 00:38:07;;;;;;;8.60;6.63;;;;;;;17.87;68.27;101534.91;5020127;27;102200;-48
2021/09/26 00:40:35;;;;;;;8.93;7.05;;;;;;;17.87;68.72;101537.66;5027452;27;103061;-48
2021/09/26 00:43:02;;;;;;;8.63;6.63;;;;;;;17.87;68.34;101532.97;5021753;27;103888;-48
2021/09/26 00:45:30;;;;;;;6.97;6.28;;;;;;;17.87;68.42;101535.72;5020654;27;102322;-48
2021/09/26 00:47:57;;;;;;;7.17;6.17;;;;;;;17.87;68.56;101538.47;5024396;27;102505;-48
2021/09/26 00:50:24;;;;;;;8.90;6.93;;;;;;;17.88;68.35;101539.28;5017145;27;102641;-47
2021/09/26 00:52:52;;;;;;;8.13;6.90;;;;;;;17.88;68.37;101540.09;5019622;27;102806;-48
2021/09/26 00:55:18;;;;;;;8.18;6.28;;;;;;;17.88;68.38;101537.34;5024773;27;102222;-49
2021/09/26 00:57:45;;;;;;;8.98;6.63;;;;;;;17.88;68.12;101540.09;5027144;27;102336;-48
2021/09/26 01:00:15;;;;;;;7.90;6.50;;;;;;;17.89;68.81;101530.75;5029465;27;102862;-49
2021/09/26 01:02:43;;;;;;;7.97;6.40;;;;;;;17.88;68.86;101539.28;5014752;27;103998;-51
2021/09/26 01:05:13;;;;;;;7.55;6.75;;;;;;;17.88;68.97;101533.78;5026331;27;102651;-50
2021/09/26 01:07:47;;;;;;;7.18;6.13;;;;;;;17.88;68.70;101534.59;5023315;27;102229;-49
2021/09/26 01:10:21;;;;;;;8.75;6.68;;;;;;;17.88;68.67;101540.09;5017243;27;102331;-48
2021/09/26 01:12:52;;;;;;;8.30;6.88;;;;;;;17.89;68.38;101535.44;5034612;27;103681;-48
2021/09/26 01:15:24;;;;;;;8.27;6.47;;;;;;;17.89;68.64;101541.75;5020109;27;102550;-50
2021/09/26 01:18:01;;;;;;;8.82;6.20;;;;;;;17.89;68.65;101539.00;5027322;27;102045;-51
2021/09/26 01:20:39;;;;;;;9.25;6.35;;;;;;;17.89;68.76;101530.75;5025534;27;102735;-49
2021/09/26 01:23:35;;;;;;;7.38;5.75;;;;;;;17.89;68.32;101536.25;5025740;27;103775;-52
2021/09/26 01:26:33;;;;;;;6.38;5.38;;;;;;;17.89;68.84;101539.00;5023952;27;102677;-49
2021/09/26 01:29:09;;;;;;;8.00;6.05;;;;;;;17.90;68.30;101535.13;5024007;27;102625;-49
2021/09/26 01:31:40;;;;;;;7.60;6.22;;;;;;;17.89;68.31;101536.25;5020924;27;102714;-49
2021/09/26 01:34:13;;;;;;;7.75;6.00;;;;;;;17.90;68.85;101531.56;5022836;27;103698;-48
2021/09/26 01:36:45;;;;;;;7.80;6.30;;;;;;;17.89;68.45;101530.75;5022802;27;102143;-48
2021/09/26 01:39:19;;;;;;;8.18;5.80;;;;;;;17.90;68.94;101537.88;5024191;27;102155;-49
2021/09/26 01:41:49;;;;;;;7.88;6.25;;;;;;;17.91;68.50;101534.00;5028903;27;102449;-47
2021/09/26 01:44:20;;;;;;;7.38;5.47;;;;;;;17.90;68.45;101532.38;5022184;27;103880;-49
2021/09/26 01:46:52;;;;;;;6.60;5.63;;;;;;;17.89;69.01;101536.25;5023006;27;102454;-48
2021/09/26 01:49:24;;;;;;;7.72;5.95;;;;;;;17.91;68.44;101536.75;5030965;27;102423;-47
2021/09/26 01:51:52;;;;;;;6.22;5.35;;;;;;;17.91;68.48;101534.00;5027246;27;102553;-47
2021/09/26 01:54:20;;;;;;;7.07;5.93;;;;;;;17.91;68.92;101538.69;5025196;27;104112;-47
2021/09/26 01:56:48;;;;;;;7.97;5.47;;;;;;;17.91;69.08;101536.75;5015547;27;102678;-47
2021/09/26 01:59:18;;;;;;;8.87;5.40;;;;;;;17.92;68.61;101541.16;5026487;27;102775;-48
2021/09/26 02:01:45;;;;;;;7.68;5.70;;;;;;;17.91;68.89;101536.75;5030656;27;102497;-48
2021/09/26 02:04:15;;;;;;;6.10;5.43;;;;;;;17.92;69.21;101549.41;5021932;27;103944;-48
2021/09/26 02:06:42;;;;;;;6.97;5.15;;;;;;;17.91;68.42;101542.25;5038385;27;102370;-47
2021/09/26 02:09:10;;;;;;;7.15;5.85;;;;;;;17.92;68.90;101541.16;5023850;27;106073;-48
2021/09/26 02:11:38;;;;;;;6.93;6.03;;;;;;;17.92;68.98;101545.81;5025701;27;102288;-49
2021/09/26 02:14:06;;;;;;;6.57;5.43;;;;;;;17.91;68.98;101539.50;5026340;27;103838;-50
2021/09/26 02:16:34;;;;;;;5.85;5.15;;;;;;;17.92;69.16;101535.66;5027946;27;102664;-48
2021/09/26 02:19:02;;;;;;;6.60;5.10;;;;;;;17.92;69.01;101541.16;5018867;27;102782;-48
2021/09/26 02:21:31;;;;;;;6.22;5.55;;;;;;;17.92;68.94;101540.31;5029582;27;102513;-47
2021/09/26 02:23:58;;;;;;;6.28;5.18;;;;;;;17.92;68.78;101541.16;5025434;27;103925;-48
2021/09/26 02:26:25;;;;;;;5.75;5.15;;;;;;;17.93;68.92;101542.78;5028471;27;102853;-47
2021/09/26 02:28:52;;;;;;;5.80;5.10;;;;;;;17.93;68.60;101545.53;5025990;27;102716;-48
2021/09/26 02:31:19;;;;;;;6.10;5.35;;;;;;;17.92;68.93;101543.91;5024629;27;103825;-47
2021/09/26 02:33:46;;;;;;;5.30;4.43;;;;;;;17.92;69.04;101532.06;5024261;27;103873;-48
2021/09/26 02:36:13;;;;;;;6.93;5.55;;;;;;;17.92;68.71;101541.16;5024935;27;102442;-47
2021/09/26 02:38:41;;;;;;;6.38;5.22;;;;;;;17.92;69.05;101535.66;5026688;27;102612;-49
2021/09/26 02:41:16;;;;;;;6.68;5.20;;;;;;;17.93;68.74;101542.78;5027915;27;102231;-48
2021/09/26 02:43:48;;;;;;;6.43;5.25;;;;;;;17.93;69.08;101537.28;5020956;27;103906;-47
2021/09/26 02:46:21;;;;;;;5.40;4.70;;;;;;;17.93;68.79;101542.78;5020545;27;103168;-48
2021/09/26 02:48:49;;;;;;;5.85;5.20;;;;;;;17.92;68.75;101541.16;5034097;27;102248;-48
2021/09/26 02:51:15;;;;;;;5.88;4.88;;;;;;;17.94;68.70;101543.59;5046536;27;102402;-48
2021/09/26 02:53:44;;;;;;;6.25;5.00;;;;;;;17.93;68.62;101540.03;5025309;27;103702;-49
2021/09/26 02:56:11;;;;;;;5.53;5.03;;;;;;;17.93;68.93;101542.78;5029462;27;102350;-47
2021/09/26 02:58:38;;;;;;;7.10;4.93;;;;;;;17.94;68.77;101538.91;5017563;27;102458;-48
2021/09/26 03:01:05;;;;;;;5.60;5.00;;;;;;;17.93;69.27;101542.78;5032502;27;102318;-48
2021/09/26 03:03:32;;;;;;;5.53;4.50;;;;;;;17.94;68.91;101547.16;5037439;27;103888;-48
2021/09/26 03:05:59;;;;;;;6.57;4.93;;;;;;;17.94;69.20;101544.41;5024615;27;102023;-50
2021/09/26 03:08:25;;;;;;;6.43;5.10;;;;;;;17.94;68.79;101544.41;5014925;27;102794;-48
2021/09/26 03:10:55;;;;;;;6.32;4.95;;;;;;;17.94;69.04;101552.66;5031841;27;102777;-48
2021/09/26 03:13:22;;;;;;;6.90;4.90;;;;;;;17.94;69.15;101552.66;5028405;27;103841;-48
2021/09/26 03:15:48;;;;;;;5.25;4.47;;;;;;;17.94;69.35;101549.91;5021933;27;102482;-47
2021/09/26 03:18:15;;;;;;;5.50;5.00;;;;;;;17.94;69.27;101549.91;5017950;27;102626;-47
2021/09/26 03:20:42;;;;;;;6.10;4.93;;;;;;;17.95;69.11;101550.72;5030658;27;102222;-47
2021/09/26 03:23:09;;;;;;;5.30;4.45;;;;;;;17.94;69.17;101552.66;5032412;27;103284;-47
2021/09/26 03:25:35;;;;;;;5.35;4.70;;;;;;;17.95;69.18;101550.72;5025407;27;102387;-48
2021/09/26 03:28:04;;;;;;;6.25;4.80;;;;;;;17.94;68.93;101547.16;5036651;27;102241;-48
2021/09/26 03:30:30;;;;;;;5.63;5.00;;;;;;;17.94;69.33;101544.41;5019916;27;102310;-47
2021/09/26 03:32:57;;;;;;;5.32;4.63;;;;;;;17.95;68.85;101546.03;5018848;27;104001;-48
2021/09/26 03:35:24;;;;;;;6.28;4.80;;;;;;;17.94;68.93;101544.41;5023365;27;102628;-47
2021/09/26 03:37:51;;;;;;;5.72;4.60;;;;;;;17.95;69.35;101545.22;5030631;27;102186;-47
2021/09/26 03:40:17;;;;;;;5.22;4.57;;;;;;;17.95;69.31;101551.53;5025264;27;102304;-48
2021/09/26 03:42:44;;;;;;;5.68;4.75;;;;;;;17.95;68.77;101545.22;5028496;27;103873;-47
2021/09/26 03:45:13;;;;;;;5.78;4.65;;;;;;;17.94;69.24;101544.41;5026488;27;102588;-47
2021/09/26 03:47:39;;;;;;;5.03;4.35;;;;;;;17.95;69.00;101546.03;5022585;27;102872;-48
2021/09/26 03:50:08;;;;;;;5.18;4.35;;;;;;;17.95;68.92;101556.25;5028789;27;102795;-47
2021/09/26 03:52:35;;;;;;;6.50;4.70;;;;;;;17.95;68.85;101551.53;5028447;27;103974;-47
2021/09/26 03:55:02;;;;;;;4.35;3.95;;;;;;;17.95;68.79;101551.53;5015133;27;102529;-48
2021/09/26 03:57:28;;;;;;;5.03;4.18;;;;;;;17.95;69.51;101547.97;5022117;27;102383;-47
2021/09/26 03:59:55;;;;;;;5.00;4.38;;;;;;;17.94;69.43;101549.91;5023483;27;102743;-47
2021/09/26 04:02:22;;;;;;;5.18;4.03;;;;;;;17.95;68.85;101551.53;5022452;27;104147;-48
2021/09/26 04:04:50;;;;;;;5.57;4.57;;;;;;;17.95;69.32;101559.81;5026063;27;102343;-48
2021/09/26 04:07:17;;;;;;;4.47;4.07;;;;;;;17.95;69.08;101559.00;5019392;27;102560;-48
2021/09/26 04:09:43;;;;;;;4.20;3.80;;;;;;;17.95;69.32;101559.81;5043398;27;102242;-48
2021/09/26 04:12:10;;;;;;;4.63;4.15;;;;;;;17.95;69.30;101565.31;5028672;27;103943;-47
2021/09/26 04:14:36;;;;;;;5.00;4.38;;;;;;;17.96;69.11;101564.22;5025522;27;102355;-47
2021/09/26 04:17:03;;;;;;;4.32;3.92;;;;;;;17.96;68.87;101572.47;5032447;27;102576;-47
2021/09/26 04:19:31;;;;;;;4.75;4.22;;;;;;;17.96;68.94;101563.41;5043680;27;102551;-47
2021/09/26 04:21:58;;;;;;;5.05;4.03;;;;;;;17.96;69.30;101564.22;5022038;27;102731;-48
2021/09/26 04:24:24;;;;;;;4.00;3.55;;;;;;;17.96;69.43;101564.22;5038628;27;102572;-47
2021/09/26 04:26:50;;;;;;;5.53;4.15;;;;;;;17.96;69.00;101568.91;5028664;27;102369;-48
2021/09/26 04:29:17;;;;;;;4.65;4.15;;;;;;;17.97;68.88;101567.78;5021957;27;102494;-48
2021/09/26 04:31:44;;;;;;;4.38;3.97;;;;;;;17.96;69.40;101558.72;5026816;27;103899;-47
2021/09/26 04:34:10;;;;;;;4.70;4.13;;;;;;;17.96;69.43;101560.66;5030673;27;102707;-47
2021/09/26 04:36:38;;;;;;;5.47;3.97;;;;;;;17.96;69.51;101564.22;5025315;27;102421;-47
2021/09/26 04:39:05;;;;;;;4.80;3.77;;;;;;;17.97;69.37;101573.28;5025467;27;102853;-47
2021/09/26 04:41:32;;;;;;;4.50;4.00;;;;;;;17.96;69.51;101566.97;5019299;27;104188;-47
2021/09/26 04:43:59;;;;;;;4.15;3.60;;;;;;;17.96;69.21;101558.72;5027710;27;102380;-48
2021/09/26 04:46:26;;;;;;;4.75;4.30;;;;;;;17.96;69.11;101564.22;5027119;27;102431;-47
2021/09/26 04:48:53;;;;;;;4.65;3.95;;;;;;;17.96;69.40;101564.22;5027863;27;102226;-47
2021/09/26 04:51:20;;;;;;;4.28;3.60;;;;;;;17.96;69.54;101564.22;5026914;27;102967;-48
2021/09/26 04:53:48;;;;;;;4.40;3.92;;;;;;;17.97;69.56;101560.34;5023630;27;102175;-47
2021/09/26 04:56:14;;;;;;;4.88;3.85;;;;;;;17.96;69.62;101564.22;5015370;27;102487;-47
2021/09/26 04:58:41;;;;;;;4.90;3.90;;;;;;;17.97;69.39;101565.03;5026362;27;102263;-48
2021/09/26 05:01:07;;;;;;;4.57;3.83;;;;;;;17.97;69.18;101565.84;5021719;27;103931;-47
2021/09/26 05:03:34;;;;;;;4.47;3.85;;;;;;;17.97;69.15;101563.09;5008256;27;102869;-48
2021/09/26 05:06:00;;;;;;;4.40;3.78;;;;;;;17.98;69.52;101567.47;5006491;28;102179;-48
2021/09/26 05:08:27;;;;;;;4.45;3.80;;;;;;;17.98;69.02;101569.41;5025918;27;102618;-47
2021/09/26 05:10:55;;;;;;;4.25;3.75;;;;;;;17.98;69.43;101577.66;5008624;28;104038;-51
2021/09/26 05:13:21;;;;;;;5.13;4.50;;;;;;;17.98;69.16;101566.66;5004482;28;102327;-48
2021/09/26 05:15:48;;;;;;;4.25;3.85;;;;;;;17.98;69.40;101569.41;5006861;28;102246;-49
2021/09/26 05:18:17;;;;;;;4.03;3.63;;;;;;;17.98;69.63;101578.50;5007474;28;102783;-49
2021/09/26 05:20:43;;;;;;;;;;;;;;;17.99;69.10;101579.31;4999857;28;104113;-49
2021/09/26 05:23:10;;;;;;;4.65;4.15;;;;;;;18.00;69.30;101575.44;5008611;28;102128;-49
2021/09/26 05:25:37;;;;;;;5.40;4.05;;;;;;;17.98;69.01;101589.50;5001410;28;102342;-48
2021/09/26 05:28:05;;;;;;;3.67;3.30;;;;;;;17.99;69.29;101582.91;5000845;28;102340;-48
2021/09/26 05:30:33;;;;;;;4.55;3.72;;;;;;;17.99;69.15;101590.31;5000080;28;108001;-48
2021/09/26 05:33:00;;;;;;;4.00;3.60;;;;;;;17.97;69.60;101587.88;5004286;28;102025;-49
2021/09/26 05:35:27;;;;;;;4.47;3.88;;;;;;;17.99;69.18;101595.81;5006704;28;102060;-51
2021/09/26 05:37:54;;;;;;;4.68;3.55;;;;;;;17.99;69.30;101596.66;4996960;28;102759;-47
2021/09/26 05:40:20;;;;;;;4.50;3.65;;;;;;;17.99;69.73;101607.69;5005203;28;103948;-48
2021/09/26 05:42:47;;;;;;;3.80;3.35;;;;;;;18.00;69.28;101601.06;5002637;28;102244;-49
2021/09/26 05:45:15;;;;;;;3.95;3.50;;;;;;;17.99;69.29;101596.66;5005343;28;102386;-49
2021/09/26 05:47:41;;;;;;;4.22;3.83;;;;;;;18.00;69.57;101603.00;5010329;28;102267;-48
2021/09/26 05:50:09;;;;;;;3.88;3.47;;;;;;;17.99;69.67;101610.44;5030022;27;103766;-48
2021/09/26 05:52:36;;;;;;;4.17;3.37;;;;;;;18.00;69.35;101603.81;4996438;28;102280;-48
2021/09/26 05:55:03;;;;;;;4.20;3.55;;;;;;;17.98;69.14;101600.53;4998402;28;102217;-48
2021/09/26 05:57:30;;;;;;;4.30;3.72;;;;;;;18.00;69.31;101603.81;5001877;28;102882;-49
2021/09/26 05:59:58;;;;;;;4.47;4.03;;;;;;;18.00;69.82;101605.75;5002435;28;103771;-48
2021/09/26 06:02:28;;;;;;;4.97;4.00;;;;;;;18.01;69.90;101599.13;5023416;27;102428;-48
2021/09/26 06:04:54;;;;;;;4.22;3.70;;;;;;;18.02;69.40;101603.50;5022841;27;102136;-48
2021/09/26 06:07:21;;;;;;;4.20;3.80;;;;;;;18.02;69.61;101590.53;5028520;27;102450;-48
2021/09/26 06:09:48;;;;;;;3.60;3.20;;;;;;;18.03;69.48;101605.13;5026426;27;104364;-49
2021/09/26 06:12:15;;;;;;;5.20;4.18;;;;;;;18.02;69.72;101601.56;5022880;27;102210;-48
2021/09/26 06:14:42;;;;;;;4.03;3.45;;;;;;;18.03;69.27;101599.63;5023862;27;103007;-49
2021/09/26 06:17:09;;;;;;;3.75;3.42;;;;;;;18.02;69.75;101596.03;5024252;27;102642;-49
2021/09/26 06:19:37;;;;;;;3.88;3.47;;;;;;;18.04;69.66;101603.22;5029283;27;102753;-49
2021/09/26 06:22:04;;;;;;;3.88;3.55;;;;;;;18.03;69.75;101607.88;5015172;27;102127;-48
2021/09/26 06:24:30;;;;;;;4.53;3.65;;;;;;;18.02;69.63;101620.84;5024116;27;102436;-49
2021/09/26 06:26:57;;;;;;;4.20;3.78;;;;;;;18.04;69.27;101637.06;5026126;27;102536;-47
2021/09/26 06:29:24;;;;;;;3.83;3.42;;;;;;;18.05;69.82;101622.19;5023398;27;103819;-49
2021/09/26 06:31:53;;;;;;;4.07;3.38;;;;;;;18.04;69.51;101625.25;5027352;27;102411;-48
2021/09/26 06:34:19;;;;;;;3.85;3.38;;;;;;;18.04;69.54;101630.75;5024863;27;102193;-49
2021/09/26 06:36:47;;;;;;;3.55;3.25;;;;;;;18.05;69.97;101626.88;5022135;27;102652;-50
2021/09/26 06:39:13;;;;;;;4.32;3.88;;;;;;;18.05;69.51;101626.88;5023840;27;103368;-49
2021/09/26 06:41:40;;;;;;;5.07;3.92;;;;;;;18.05;70.07;101621.38;5032369;27;102410;-48
2021/09/26 06:44:07;;;;;;;4.18;3.72;;;;;;;18.04;69.64;101620.56;5031599;27;102602;-48
2021/09/26 06:46:33;;;;;;;4.20;3.40;;;;;;;18.04;69.54;101617.81;5024015;27;102914;-47
2021/09/26 06:49:00;;;;;;;3.97;3.55;;;;;;;18.05;69.57;101627.69;5025666;27;103938;-49
2021/09/26 06:51:28;;;;;;;3.90;3.50;;;;;;;18.06;69.64;101628.50;5018084;27;102879;-48
2021/09/26 06:53:56;;;;;;;3.77;3.40;;;;;;;18.05;69.95;101615.84;5027576;27;102695;-47
2021/09/26 06:56:23;;;;;;;4.27;3.47;;;;;;;18.05;69.69;101624.13;5024461;27;102806;-48
2021/09/26 06:58:50;;;;;;;4.35;3.35;;;;;;;18.06;69.42;101620.25;5023074;27;103460;-48
2021/09/26 07:01:16;;;;;;;3.40;3.10;;;;;;;18.06;70.08;101628.50;5023930;27;102525;-48
2021/09/26 07:03:42;;;;;;;4.18;3.70;;;;;;;18.06;69.96;101628.50;5019977;27;102083;-48
2021/09/26 07:06:09;;;;;;;4.30;3.53;;;;;;;18.07;70.12;101630.13;5017583;27;102834;-49
2021/09/26 07:08:36;;;;;;;4.00;3.15;;;;;;;18.08;70.20;101634.53;5012323;27;104365;-49
2021/09/26 07:11:04;;;;;;;3.90;3.25;;;;;;;18.07;69.65;101624.63;5018917;27;102824;-49
2021/09/26 07:13:30;;;;;;;4.55;3.55;;;;;;;18.08;69.99;101637.31;5018132;27;102005;-47
2021/09/26 07:15:57;;;;;;;3.97;3.22;;;;;;;18.09;70.09;101636.16;5025860;27;102156;-48
2021/09/26 07:18:24;;;;;;;4.72;3.20;;;;;;;18.09;69.78;101647.19;5020399;27;103881;-50
2021/09/26 07:20:50;;;;;;;3.92;3.00;;;;;;;18.09;69.89;101641.69;5024393;27;102875;-49
2021/09/26 07:23:17;;;;;;;3.75;3.45;;;;;;;18.10;70.36;101651.56;5026595;27;102135;-48
2021/09/26 07:25:43;;;;;;;3.53;3.22;;;;;;;18.11;69.75;101653.22;5021933;27;102329;-48
2021/09/26 07:28:11;;;;;;;4.05;3.65;;;;;;;18.11;69.62;101650.47;5017926;27;102802;-47
2021/09/26 07:30:38;;;;;;;4.13;3.58;;;;;;;18.11;70.27;101651.28;5019329;27;102464;-47
2021/09/26 07:33:04;;;;;;;4.88;3.83;;;;;;;18.12;70.07;101660.38;5025738;27;102613;-48
2021/09/26 07:35:31;;;;;;;3.67;3.22;;;;;;;18.12;70.18;101657.63;5028556;27;102348;-48
2021/09/26 07:37:58;;;;;;;4.60;3.70;;;;;;;18.11;70.13;101659.56;5023404;27;103928;-49
2021/09/26 07:40:25;;;;;;;4.72;3.80;;;;;;;18.12;70.33;101660.38;5026639;27;102623;-48
2021/09/26 07:42:52;;;;;;;4.10;3.20;;;;;;;18.13;70.21;101657.31;5026974;27;102349;-49
2021/09/26 07:45:20;;;;;;;5.50;4.13;;;;;;;18.14;70.26;101663.63;5030043;27;102182;-49
2021/09/26 07:47:47;;;;;;;4.15;3.75;;;;;;;18.13;69.75;101646.28;5018251;27;104081;-48
2021/09/26 07:50:14;;;;;;;4.15;3.63;;;;;;;18.13;70.05;101650.97;5030377;27;102590;-49
2021/09/26 07:52:41;;;;;;;4.47;3.70;;;;;;;18.13;70.00;101645.47;5029171;28;102234;-49
2021/09/26 07:55:09;;;;;;;4.35;3.72;;;;;;;18.14;70.32;101653.44;5030329;27;102327;-49
2021/09/26 07:57:36;;;;;;;4.03;3.63;;;;;;;18.13;70.04;101656.50;5029635;27;103730;-48
2021/09/26 08:00:04;;;;;;;4.78;3.75;;;;;;;18.14;70.22;101647.09;5037951;27;102849;-49
2021/09/26 08:02:33;;;;;;;4.60;3.60;;;;;;;18.14;69.89;101652.59;5027399;27;102358;-47
2021/09/26 08:04:59;;;;;;;4.22;3.78;;;;;;;18.14;70.14;101653.44;5004688;27;102827;-48
2021/09/26 08:07:26;;;;;;;3.88;3.42;;;;;;;18.14;70.03;101652.59;5010458;28;104090;-50
2021/09/26 08:09:52;;;;;;;4.00;3.60;;;;;;;18.15;70.17;101651.50;4995083;28;102275;-47
2021/09/26 08:12:19;;;;;;;4.97;3.65;;;;;;;18.15;70.09;101659.78;4992497;28;102970;-48
2021/09/26 08:14:46;;;;;;;4.30;3.35;;;;;;;18.15;69.93;101659.78;4997838;28;102698;-48
2021/09/26 08:17:13;;;;;;;3.90;3.33;;;;;;;18.15;70.01;101659.78;5000569;28;103965;-51
2021/09/26 08:19:43;;;;;;;3.40;3.05;;;;;;;18.15;69.77;101659.78;5004292;28;102520;-50
2021/09/26 08:22:10;;;;;;;3.83;2.65;;;;;;;18.16;70.02;101661.41;5023078;27;102034;-47
2021/09/26 08:24:37;;;;;;;3.88;3.47;;;;;;;18.16;69.81;101658.66;5022532;27;102797;-47
2021/09/26 08:27:06;;;;;;;3.88;3.10;;;;;;;18.17;69.79;101657.53;5004571;27;104047;-47
2021/09/26 08:29:33;;;;;;;3.83;3.22;;;;;;;18.16;70.16;101650.38;5025101;27;102156;-48
2021/09/26 08:32:02;;;;;;;8.45;4.00;;;;;;;18.17;70.07;101652.00;5021923;27;102669;-48
2021/09/26 08:34:30;;;;;;;4.32;3.42;;;;;;;18.16;69.75;101653.13;5038463;27;102510;-47
2021/09/26 08:36:58;;;;;;;5.40;3.47;;;;;;;18.14;69.69;101647.94;5025592;27;103745;-47
2021/09/26 08:39:25;;;;;;;6.35;5.32;;;;;;;18.15;70.17;101648.75;5038895;27;102886;-48
2021/09/26 08:41:53;;;;;;;9.38;5.60;;;;;;;18.14;70.02;101647.09;5023732;27;102658;-48
2021/09/26 08:44:21;;;;;;;9.77;5.53;;;;;;;18.13;69.91;101645.47;5024714;27;102660;-48
2021/09/26 08:46:47;;;;;;;8.45;5.20;;;;;;;18.12;69.26;101649.34;5017832;27;103907;-49
2021/09/26 08:49:18;;;;;;;8.55;6.28;;;;;;;18.11;69.48;101636.69;5022511;27;102540;-49
2021/09/26 08:51:45;;;;;;;8.27;5.68;;;;;;;18.09;68.95;101638.94;5022015;27;102387;-46
2021/09/26 08:54:13;;;;;;;8.93;5.50;;;;;;;18.08;69.03;101631.78;5018208;27;102498;-46
2021/09/26 08:56:41;;;;;;;6.32;5.00;;;;;;;18.07;68.84;101635.63;5042842;27;103928;-47
2021/09/26 08:59:09;;;;;;;12.07;7.07;;;;;;;18.07;68.40;101632.88;5034850;27;102059;-47
2021/09/26 09:01:37;;;;;;;9.18;6.43;;;;;;;18.06;68.06;101634.00;5031208;27;102088;-47
2021/09/26 09:04:05;;;;;;;7.38;5.55;;;;;;;18.06;68.23;101640.34;5028528;27;102115;-48
2021/09/26 09:06:42;;;;;;;7.97;5.68;;;;;;;18.06;67.63;101634.00;5025566;27;103433;-47
2021/09/26 09:09:14;;;;;;;7.35;5.13;;;;;;;18.05;67.91;101638.72;5013221;27;103686;-47
2021/09/26 09:11:58;;;;;;;7.85;5.65;;;;;;;18.06;67.59;101634.81;5023350;27;102378;-50
2021/09/26 09:14:26;;;;;;;8.05;5.43;;;;;;;18.06;67.23;101636.75;5012043;27;102013;-51
2021/09/26 09:16:53;;;;;;;11.88;5.90;;;;;;;18.06;67.78;101637.59;5024755;27;103981;-51
2021/09/26 09:19:21;;;;;;;7.82;5.35;;;;;;;18.07;67.89;101638.41;5021864;27;102707;-52
2021/09/26 09:22:02;;;;;;;;;;;;;;;18.08;67.13;101638.13;5022609;27;102404;-52
2021/09/26 09:24:38;;;;;;;7.85;5.40;;;;;;;18.08;67.36;101637.31;5021110;27;102619;-52
2021/09/26 09:27:16;;;;;;;8.20;6.15;;;;;;;18.09;67.32;101636.16;5014221;27;104609;-52
2021/09/26 09:30:17;;;;;;;8.68;5.68;;;;;;;18.09;67.29;101631.47;5004646;27;102759;-52
2021/09/26 09:33:10;;;;;;;11.05;5.88;;;;;;;18.09;66.82;101634.22;5000535;27;103855;-52
2021/09/26 09:35:56;;;;;;;9.60;6.20;;;;;;;18.11;67.14;101634.75;5026423;27;102749;-52
2021/09/26 09:38:40;;;;;;;13.30;8.63;;;;;;;18.12;67.00;101627.31;5010137;27;102576;-52
2021/09/26 09:41:06;;;;;;;11.73;6.22;;;;;;;18.13;67.12;101634.44;5022790;27;102495;-52
2021/09/26 09:43:49;;;;;;;9.98;5.70;;;;;;;18.14;66.97;101625.06;5022891;28;102594;-52
2021/09/26 09:46:29;;;;;;;11.05;5.75;;;;;;;18.14;66.88;101627.81;5025003;27;102774;-52
2021/09/26 09:49:17;;;;;;;12.25;6.38;;;;;;;18.17;66.93;101624.47;5022643;27;104075;-52
2021/09/26 09:51:49;;;;;;;10.98;6.00;;;;;;;18.17;66.65;101629.97;5029819;27;102350;-52
2021/09/26 09:54:15;;;;;;;10.63;5.97;;;;;;;18.18;66.52;101624.19;5018026;27;102482;-52
2021/09/26 09:56:46;;;;;;;8.38;5.72;;;;;;;18.19;66.51;101628.56;5017847;27;102254;-52
2021/09/26 09:59:31;;;;;;;8.05;6.22;;;;;;;18.22;66.49;101618.88;5022971;27;103762;-52
2021/09/26 10:02:19;;;;;;;7.97;5.40;;;;;;;18.22;66.92;101627.16;5017464;27;102300;-52
2021/09/26 10:05:25;;;;;;;7.60;6.13;;;;;;;18.25;66.51;101634.81;4984201;28;103781;-52
2021/09/26 10:07:54;;;;;;;8.52;5.30;;;;;;;18.25;66.31;101627.38;5022139;27;102457;-57
2021/09/26 10:10:32;;;;;;;27.77;7.10;;;;;;;18.27;66.28;101617.97;5014502;27;102564;-58
2021/09/26 10:13:09;;;;;;;15.18;10.20;;;;;;;18.30;66.10;101623.69;5018654;27;104792;-57
2021/09/26 10:15:37;;;;;;;12.38;8.63;;;;;;;18.31;66.41;101614.31;5024531;27;102220;-58
2021/09/26 10:18:04;;;;;;;7.65;6.70;;;;;;;18.35;66.08;101620.03;5023025;27;102254;-58
2021/09/26 10:20:31;;;;;;;11.35;7.80;;;;;;;18.36;66.12;101617.00;5023643;27;108996;-56
2021/09/26 10:22:58;;;;;;;12.70;10.13;;;;;;;18.38;66.04;101619.44;5026810;27;102637;-58
2021/09/26 10:25:26;;;;;;;16.00;13.95;;;;;;;18.38;66.11;101619.44;5013700;27;102443;-58
2021/09/26 10:27:53;;;;;;;18.33;12.82;;;;;;;18.39;66.12;101615.56;5028218;27;102593;-57
2021/09/26 10:30:21;;;;;;;25.60;19.70;;;;;;;18.39;66.08;101610.88;5024993;27;103861;-58
2021/09/26 10:32:50;;;;;;;16.98;13.57;;;;;;;18.41;65.85;101611.38;5028236;27;102201;-57
2021/09/26 10:35:16;;;;;;;10.45;8.25;;;;;;;18.43;66.20;101605.59;5030093;27;102195;-57
2021/09/26 10:37:44;;;;;;;10.07;7.13;;;;;;;18.44;65.76;101612.72;5036080;27;102556;-57
2021/09/26 10:40:11;;;;;;;10.43;6.50;;;;;;;18.46;65.68;101608.56;5023019;27;104076;-58
2021/09/26 10:42:39;;;;;;;10.07;5.45;;;;;;;18.48;65.74;101605.47;5024766;27;102499;-57
2021/09/26 10:45:09;;;;;;;8.40;5.90;;;;;;;18.49;65.60;101593.31;5020484;27;103713;-57
2021/09/26 10:47:37;;;;;;;7.63;5.75;;;;;;;18.49;65.78;101594.13;5028694;27;102901;-57
2021/09/26 10:50:11;;;;;;;6.25;5.65;;;;;;;18.52;65.60;101601.00;5026527;27;104072;-57
2021/09/26 10:52:41;;;;;;;6.10;4.90;;;;;;;18.54;65.70;101586.91;5029508;27;102718;-57
2021/09/26 10:55:32;;;;;;;11.20;7.82;;;;;;;18.56;65.43;101591.00;5011689;28;102397;-57
2021/09/26 10:58:18;;;;;;;21.17;11.25;;;;;;;18.57;65.19;101580.78;4993931;28;102658;-57
2021/09/26 11:00:53;;;;;;;18.38;12.80;;;;;;;18.57;65.32;101578.03;5026879;28;103996;-58
2021/09/26 11:03:21;;;;;;;60.80;42.95;;;;;;;18.59;65.12;101575.78;5025646;27;102427;-58
2021/09/26 11:05:51;;;;;;;373.30;264.43;;;;;;;18.61;65.19;101573.53;5024448;27;102417;-58
2021/09/26 11:08:43;;;;;;;102.65;74.45;;;;;;;18.63;64.89;101576.81;5035033;27;102719;-57
2021/09/26 11:11:32;;;;;;;60.05;45.13;;;;;;;18.65;65.10;101580.09;5038329;27;103812;-57
2021/09/26 11:13:59;;;;;;;58.88;40.55;;;;;;;18.66;64.95;101576.22;5012400;28;102200;-58
2021/09/26 11:16:46;;;;;;;77.72;53.70;;;;;;;18.69;64.77;101575.59;5028343;27;102271;-57
2021/09/26 11:19:14;;;;;;;47.28;32.60;;;;;;;18.71;65.05;101562.34;5016948;27;102581;-58
2021/09/26 11:21:58;;;;;;;52.33;38.20;;;;;;;18.74;64.88;101561.72;5026880;27;103755;-57
2021/09/26 11:24:35;;;;;;;37.65;26.92;;;;;;;18.74;64.56;101561.72;5026380;27;102342;-58
2021/09/26 11:27:09;;;;;;;24.85;15.48;;;;;;;18.76;64.42;101566.97;5020296;27;102960;-58